AirNav   Advertisement
 
 1653 users online  

CT74 Westford Airstrip
Ashford/Westford, Connecticut, USA

GOING TO ASHFORD/WESTFORD?


FAA INFORMATION EFFECTIVE 20 JULY 2017

Location

FAA Identifier: CT74
Lat/Long: 41-57-02.3480N / 072-10-53.2780W
41-57.039133N / 072-10.887967W
41.9506522 / -72.1814661
(estimated)
Elevation: 900 ft. / 274 m (estimated)
Variation: 15W (1985)
From city: 2 miles N of central business district of the associated city
Time zone: UTC -4 (UTC -5 during Standard Time)
Zip code: 06278

Airport Operations

Airport use: Private use. Permission required prior to landing
Activation date: 12/1977
Control tower: no
ARTCC: BOSTON CENTER
FSS: BRIDGEPORT FLIGHT SERVICE STATION
Attendance: UNATNDD
Wind indicator: yes
Segmented circle: no

Airport Communications

WX ASOS at IJD (12 nm S): 133.675 (860-456-8839)
WX AWOS-3 at LZD (15 nm SE): 119.125 (860-779-7251)

Nearby radio navigation aids

VOR radial/distance  VOR name  Freq  Var
PUTr283/15.1PUTNAM VOR/DME117.4014W
CEFr148/21.3WESTOVER VORTAC114.0014W
HFDr054/24.8HARTFORD VOR/DME114.9013W
ORWr355/25.0NORWICH VOR/DME110.0014W
BAFr132/27.0BARNES VORTAC113.0014W
GDMr203/36.1GARDNER VOR/DME110.6014W
PVDr306/36.2PROVIDENCE VOR/DME115.6014W
GONr005/37.7GROTON VOR/DME110.8514W
CTRr134/39.8CHESTER VOR/DME115.1013W

Airport Services

Runway Information

Runway N/S

Dimensions: 1300 x 200 ft. / 396 x 61 m
Surface: turf
RUNWAY N  RUNWAY S
Traffic pattern: leftleft

Airport Ownership and Management from official FAA records

Ownership: Privately-owned
Owner: CHARLES J. WOYTIK
343 WATERFALL RD.
ASHFORD, CT 06278
Phone (860) 487-4392
Manager: DANIEL J BRNDIAR
61 LEADMINE RD
ASHFORD, CT 06278
Phone 860-487-4392

Airport Operational Statistics

Aircraft based on the field: 2
Single engine airplanes: 1
Ultralights: 1
    

Instrument Procedures

There are no published instrument procedures at CT74.

Some nearby airports with instrument procedures:

3B0 - Southbridge Municipal Airport (11 nm NE)
KIJD - Windham Airport (12 nm S)
KLZD - Danielson Airport (15 nm SE)
KCEF - Westover Air Reserve Base/Metropolitan Airport (21 nm NW)
KBDL - Bradley International Airport (22 nm W)
 
Loc | Ops | Rwys | IFR | FBO | Links
Com | Nav | Svcs | Stats | Notes

Silver City Flying Club
 
Area around CT74 (Westford Airstrip)
 
Road maps at: MapQuest Bing Google
 
Aerial photo
No photo
 
Sectional chart

 
Airport distance calculator
Flying to Westford Airstrip? Find the distance to fly.

From to CT74

Sunrise and sunset
Times for 24-Jul-2017
 Local
(UTC-4)
 Zulu
(UTC)
Morning civil twilight05:0309:03
Sunrise05:3509:35
Sunset20:1500:15
Evening civil twilight20:4700:47

Current date and time
Zulu (UTC)  24-Jul-2017 18:55:18
Local (UTC-4)  24-Jul-2017 14:55:18
 
METAR
KIJD 
12nm S 
241752Z AUTO 04009G16KT 10SM -RA BKN012 OVC018 16/14 A2984 RMK AO2 SLP105 P0000 6//// T01610144 10172 20150 58007 $
KCEF 
21nm NW 
241758Z 04010KT 10SM BKN013 OVC026 15/13 A2988 RMK AO2A SLP124 60086 T01530131 10154 20136 56014
KBDL 
22nm W 
241803Z 02009KT 3SM -RA BR SCT008 BKN011 OVC035 16/14 A2989 RMK AO2 SFC VIS 4 P0001 T01560144
KORH 
24nm NE 
241833Z 05011G19KT 2SM R11/6000VP6000FT RA BR OVC003 12/11 A2991 RMK AO2 P0015 T01220111
TAF
KCEF 
21nm NW 
241800Z 2418/2524 05012G18KT 6000 -SHRA OVC015 QNH2988INS BECMG 2422/2423 04009KT 9999 NSW OVC020 QNH2990INS BECMG 2504/2505 04006KT 9999 OVC030 QNH2995INS BECMG 2514/2515 02006KT 9999 OVC040 QNH3008INS TX18/2418Z TN13/2509Z
KBDL 
22nm W 
241743Z 2418/2524 36010KT 3SM -RA BR VCSH FEW007 SCT013 OVC030 FM241900 03007KT 4SM BR VCSH OVC015 FM242300 03007KT 5SM BR OVC015 FM250100 02005KT P6SM VCSH OVC015 FM251100 02005KT P6SM OVC015 FM251700 01006KT P6SM BKN035
KORH 
24nm NE 
241743Z 2418/2518 04009G16KT 1 1/2SM +RA BR OVC004 FM250000 04008KT 3SM BR OVC008 FM250500 03007KT 6SM BR VCSH OVC010 FM250600 03008KT P6SM VCSH OVC010 FM251100 03005KT P6SM OVC010 FM251700 02006KT P6SM BKN035
NOTAMs
Click for the latest NOTAMs
NOTAMs are issued by the DoD/FAA and will open in a separate window not controlled by AirNav.

 

 
 

Would you like to see your business listed on this page?

 If your business provides an interesting product or service to pilots, flight crews, aircraft, or users of the Westford Airstrip, you should consider listing it here.  To start the listing process, click on the button below
 
Add a business
 

Other Pages about Westford Airstrip

Update a link
 
Copyright © AirNav, LLC. All rights reserved. Privacy Policy  Contact